createdAt,value
2018-09-03T00:01:28.696Z,4.23
2018-09-03T00:03:56.330Z,4.90
2018-09-03T00:06:24.060Z,6.43
2018-09-03T00:08:51.709Z,15.63
2018-09-03T00:11:19.722Z,7.27
2018-09-03T00:13:48.016Z,4.23
2018-09-03T00:16:15.649Z,4.93
2018-09-03T00:18:43.342Z,6.33
2018-09-03T00:21:11.029Z,7.43
2018-09-03T00:23:39.613Z,7.57
2018-09-03T00:26:07.397Z,6.70
2018-09-03T00:28:35.037Z,9.37
2018-09-03T00:31:08.512Z,4.00
2018-09-03T00:33:41.719Z,7.70
2018-09-03T00:36:15.327Z,10.83
2018-09-03T00:38:48.972Z,6.00
2018-09-03T00:41:22.208Z,5.27
2018-09-03T00:43:55.479Z,8.50
2018-09-03T00:46:29.172Z,5.03
2018-09-03T00:48:57.246Z,8.53
2018-09-03T00:51:24.887Z,5.20
2018-09-03T00:53:52.926Z,5.20
2018-09-03T00:56:20.672Z,5.60
2018-09-03T00:58:48.335Z,6.30
2018-09-03T01:01:16.560Z,4.90
2018-09-03T01:03:44.301Z,9.40
2018-09-03T01:06:12.391Z,10.00
2018-09-03T01:08:40.443Z,18.20
2018-09-03T01:11:08.360Z,6.80
2018-09-03T01:13:36.101Z,8.97
2018-09-03T01:16:04.337Z,6.60
2018-09-03T01:18:37.122Z,5.90
2018-09-03T01:21:05.095Z,6.83
2018-09-03T01:23:33.016Z,7.07
2018-09-03T01:26:00.741Z,5.40
2018-09-03T01:28:28.482Z,8.63
2018-09-03T01:30:56.180Z,6.90
2018-09-03T01:33:23.898Z,7.90
2018-09-03T01:35:51.634Z,6.27
2018-09-03T01:38:19.408Z,7.53
2018-09-03T01:40:47.052Z,7.20
2018-09-03T01:43:14.817Z,5.73
2018-09-03T01:45:42.678Z,7.27
2018-09-03T01:48:10.456Z,12.03
2018-09-03T01:50:38.469Z,9.77
2018-09-03T01:53:05.506Z,8.40
2018-09-03T01:55:33.194Z,6.90
2018-09-03T01:58:01.241Z,12.57
2018-09-03T02:00:28.909Z,6.33
2018-09-03T02:02:56.616Z,5.80
2018-09-03T02:05:24.273Z,5.70
2018-09-03T02:07:52.522Z,10.20
2018-09-03T02:10:20.232Z,7.10
2018-09-03T02:12:47.945Z,7.47
2018-09-03T02:15:16.196Z,9.73
2018-09-03T02:17:43.924Z,9.07
2018-09-03T02:20:11.647Z,7.70
2018-09-03T02:22:39.712Z,11.63
2018-09-03T02:25:07.456Z,6.17
2018-09-03T02:27:35.476Z,7.40
2018-09-03T02:30:03.141Z,5.80
2018-09-03T02:32:31.229Z,6.83
2018-09-03T02:34:59.263Z,7.30
2018-09-03T02:37:27.289Z,4.90
2018-09-03T02:39:54.979Z,9.10
2018-09-03T02:42:22.656Z,13.13
2018-09-03T02:44:50.405Z,6.50
2018-09-03T02:47:18.104Z,6.60
2018-09-03T02:49:45.860Z,7.47
2018-09-03T02:52:13.863Z,7.53
2018-09-03T02:54:41.750Z,6.40
2018-09-03T02:57:09.451Z,9.03
2018-09-03T02:59:37.220Z,8.50
2018-09-03T03:02:05.025Z,6.87
2018-09-03T03:04:32.725Z,6.40
2018-09-03T03:07:00.363Z,6.60
2018-09-03T03:09:28.456Z,7.37
2018-09-03T03:11:56.177Z,6.23
2018-09-03T03:14:23.845Z,6.70
2018-09-03T03:16:51.640Z,11.50
2018-09-03T03:19:19.341Z,5.87
2018-09-03T03:21:47.045Z,9.50
2018-09-03T03:24:14.751Z,7.00
2018-09-03T03:26:42.465Z,6.63
2018-09-03T03:29:10.263Z,11.47
2018-09-03T03:31:38.308Z,7.67
2018-09-03T03:34:06.588Z,6.70
2018-09-03T03:36:34.275Z,7.73
2018-09-03T03:39:02.085Z,7.40
2018-09-03T03:41:29.769Z,7.20
2018-09-03T03:43:57.506Z,7.03
2018-09-03T03:46:25.459Z,8.17
2018-09-03T03:48:53.148Z,13.83
2018-09-03T03:51:20.867Z,8.40
2018-09-03T03:53:48.554Z,13.40
2018-09-03T03:56:16.275Z,7.03
2018-09-03T03:58:44.145Z,9.03
2018-09-03T04:04:20.292Z,10.50
2018-09-03T04:06:47.928Z,8.03
2018-09-03T04:09:16.132Z,11.20
2018-09-03T04:14:34.216Z,9.20
2018-09-03T04:17:02.101Z,7.47
2018-09-03T04:19:29.762Z,7.33
2018-09-03T04:21:57.674Z,6.87
2018-09-03T04:24:41.576Z,7.27
2018-09-03T04:27:09.195Z,6.47
2018-09-03T04:29:37.097Z,10.80
2018-09-03T04:32:05.151Z,9.63
2018-09-03T04:34:32.794Z,7.73
2018-09-03T04:37:00.509Z,7.20
2018-09-03T04:39:28.136Z,9.63
2018-09-03T04:42:09.089Z,9.83
2018-09-03T04:44:36.701Z,7.20
2018-09-03T04:58:27.364Z,7.00
2018-09-03T05:00:55.059Z,11.40
2018-09-03T05:03:22.733Z,6.33
2018-09-03T05:05:51.369Z,10.90
2018-09-03T05:08:19.405Z,10.70
2018-09-03T05:10:47.348Z,8.53
2018-09-03T05:16:05.937Z,6.90
2018-09-03T05:18:35.195Z,6.90
2018-09-03T05:21:03.190Z,7.40
2018-09-03T05:23:30.931Z,7.90
2018-09-03T05:25:58.716Z,6.13
2018-09-03T05:28:26.408Z,5.70
2018-09-03T05:30:54.518Z,8.70
2018-09-03T05:33:22.296Z,8.27
2018-09-03T05:35:50.072Z,8.87
2018-09-03T05:38:18.064Z,8.20
2018-09-03T05:40:45.755Z,26.30
2018-09-03T05:43:13.457Z,17.70
2018-09-03T05:45:41.177Z,12.20
2018-09-03T05:48:09.157Z,10.90
2018-09-03T05:50:36.895Z,10.37
2018-09-03T05:53:05.051Z,7.13
2018-09-03T05:55:33.124Z,7.07
2018-09-03T05:58:01.384Z,7.80
2018-09-03T06:00:29.428Z,12.33
2018-09-03T06:02:57.166Z,8.67
2018-09-03T06:05:24.988Z,13.83
2018-09-03T06:07:52.736Z,13.50
2018-09-03T06:10:20.438Z,13.50
2018-09-03T06:12:48.166Z,11.53
2018-09-03T06:15:16.015Z,20.80
2018-09-03T06:17:43.784Z,29.07
2018-09-03T06:20:23.256Z,15.30
2018-09-03T06:22:51.140Z,20.00
2018-09-03T06:25:18.862Z,8.53
2018-09-03T06:27:46.751Z,22.87
2018-09-03T06:30:15.071Z,30.80
2018-09-03T06:32:42.862Z,19.00
2018-09-03T06:35:10.871Z,29.70
2018-09-03T06:37:38.646Z,25.13
2018-09-03T06:40:06.424Z,17.90
2018-09-03T06:42:35.020Z,12.87
2018-09-03T06:45:02.821Z,18.37
2018-09-03T06:47:30.608Z,17.83
2018-09-03T06:49:58.410Z,9.30
2018-09-03T06:52:26.428Z,22.03
2018-09-03T06:54:54.149Z,14.70
2018-09-03T06:57:21.892Z,9.47
2018-09-03T06:59:49.660Z,11.43
2018-09-03T07:02:17.580Z,12.03
2018-09-03T07:04:45.325Z,11.50
2018-09-03T07:07:13.019Z,13.07
2018-09-03T07:09:40.781Z,6.73
2018-09-03T07:12:08.470Z,8.90
2018-09-03T07:14:36.136Z,12.80
2018-09-03T07:17:04.717Z,16.73
2018-09-03T07:19:32.428Z,8.20
2018-09-03T07:22:00.532Z,8.40
2018-09-03T07:24:28.248Z,10.67
2018-09-03T07:26:55.957Z,7.83
2018-09-03T07:29:24.300Z,5.40
2018-09-03T07:31:52.032Z,7.13
2018-09-03T07:34:20.629Z,7.07
2018-09-03T07:36:48.661Z,11.20
2018-09-03T07:39:16.958Z,7.90
2018-09-03T07:41:44.758Z,12.53
2018-09-03T07:44:12.612Z,6.40
2018-09-03T07:46:40.364Z,11.67
2018-09-03T07:49:08.185Z,6.70
2018-09-03T07:51:35.956Z,8.80
2018-09-03T07:54:03.628Z,6.97
2018-09-03T07:56:31.312Z,9.90
2018-09-03T07:58:59.402Z,4.53
2018-09-03T08:01:27.035Z,12.30
2018-09-03T08:03:55.084Z,5.90
2018-09-03T08:06:23.097Z,9.83
2018-09-03T08:08:50.789Z,7.17
2018-09-03T08:11:18.935Z,5.90
2018-09-03T08:13:46.668Z,10.50
2018-09-03T08:16:14.467Z,7.30
2018-09-03T08:18:42.321Z,8.00
2018-09-03T08:21:10.043Z,8.43
2018-09-03T08:23:37.822Z,6.10
2018-09-03T08:26:05.753Z,5.47
2018-09-03T08:28:33.584Z,6.73
2018-09-03T08:31:01.631Z,5.90
2018-09-03T08:33:29.318Z,4.70
2018-09-03T08:35:57.589Z,5.93
2018-09-03T08:38:25.425Z,13.73
2018-09-03T08:40:53.239Z,8.00
2018-09-03T08:43:21.257Z,6.20
2018-09-03T08:45:48.992Z,4.40
2018-09-03T08:48:16.756Z,9.60
2018-09-03T08:50:44.670Z,6.47
2018-09-03T08:53:12.365Z,11.67
2018-09-03T08:55:40.168Z,7.87
2018-09-03T08:58:07.935Z,6.10
2018-09-03T09:00:35.613Z,7.10
2018-09-03T09:03:03.289Z,6.73
2018-09-03T09:05:31.371Z,6.40
2018-09-03T09:07:59.077Z,5.33
2018-09-03T09:10:26.759Z,5.07
2018-09-03T09:15:44.833Z,4.57
2018-09-03T09:18:12.643Z,6.27
2018-09-03T09:20:40.390Z,6.13
2018-09-03T09:23:08.212Z,9.00
2018-09-03T09:25:36.040Z,10.80
2018-09-03T09:28:03.982Z,8.53
2018-09-03T09:30:31.833Z,6.10
2018-09-03T09:32:59.587Z,8.87
2018-09-03T09:35:27.654Z,6.90
2018-09-03T09:40:49.777Z,7.13
2018-09-03T09:43:17.722Z,7.13
2018-09-03T09:45:45.395Z,5.90
2018-09-03T09:48:13.089Z,6.53
2018-09-03T09:50:40.813Z,6.53
2018-09-03T09:53:08.484Z,6.30
2018-09-03T09:55:36.332Z,7.70
2018-09-03T09:58:04.041Z,6.23
2018-09-03T10:00:37.472Z,6.40
2018-09-03T10:03:05.156Z,6.07
2018-09-03T10:05:32.899Z,7.70
2018-09-03T10:08:00.869Z,7.27
2018-09-03T10:10:29.163Z,8.43
2018-09-03T10:12:56.933Z,8.60
2018-09-03T10:15:24.761Z,7.03
2018-09-03T10:17:52.490Z,6.40
2018-09-03T10:20:20.563Z,11.53
2018-09-03T10:22:48.262Z,9.87
2018-09-03T10:25:15.949Z,8.30
2018-09-03T10:27:43.733Z,10.43
2018-09-03T10:30:11.426Z,18.83
2018-09-03T10:32:40.314Z,14.77
2018-09-03T10:35:08.080Z,17.30
2018-09-03T10:37:35.912Z,22.77
2018-09-03T10:40:04.053Z,19.30
2018-09-03T10:42:32.003Z,36.43
2018-09-03T10:45:00.117Z,17.23
2018-09-03T10:47:27.829Z,14.70
2018-09-03T10:49:55.629Z,13.63
2018-09-03T10:52:23.371Z,18.13
2018-09-03T10:54:51.058Z,18.23
2018-09-03T10:57:18.846Z,11.90
2018-09-03T10:59:47.067Z,18.10
2018-09-03T11:02:14.777Z,10.20
2018-09-03T11:04:43.757Z,11.13
2018-09-03T11:07:12.450Z,15.07
2018-09-03T11:09:41.325Z,18.73
2018-09-03T11:12:09.134Z,9.27
2018-09-03T11:14:36.952Z,16.13
2018-09-03T11:17:04.662Z,15.73
2018-09-03T11:19:34.956Z,14.50
2018-09-03T11:22:02.726Z,14.00
2018-09-03T11:24:30.460Z,11.67
2018-09-03T11:26:58.179Z,16.90
2018-09-03T11:29:26.077Z,17.63
2018-09-03T11:31:53.971Z,16.97
2018-09-03T11:34:21.666Z,36.07
2018-09-03T11:36:49.590Z,23.73
2018-09-03T11:39:17.631Z,18.80
2018-09-03T11:41:45.577Z,10.27
2018-09-03T11:44:13.351Z,15.53
2018-09-03T11:46:41.413Z,14.07
2018-09-03T11:49:09.116Z,12.70
2018-09-03T11:51:36.950Z,13.40
2018-09-03T11:54:04.679Z,11.53
2018-09-03T11:56:32.366Z,22.57
2018-09-03T11:59:00.571Z,11.63
2018-09-03T12:01:28.282Z,11.00
2018-09-03T12:03:55.990Z,13.00
2018-09-03T12:06:23.709Z,14.57
2018-09-03T12:08:51.329Z,14.50
2018-09-03T12:11:19.226Z,11.67
2018-09-03T12:13:47.202Z,17.13
2018-09-03T12:16:18.739Z,9.33
2018-09-03T12:21:37.098Z,31.90
2018-09-03T12:24:05.446Z,20.13
2018-09-03T12:26:34.160Z,15.93
2018-09-03T12:29:03.035Z,13.90
2018-09-03T12:31:34.872Z,13.90
2018-09-03T12:34:03.518Z,12.07
2018-09-03T12:36:41.951Z,12.70
2018-09-03T12:39:10.623Z,12.63
2018-09-03T12:41:39.184Z,10.70
2018-09-03T12:44:13.498Z,12.20
2018-09-03T12:46:41.249Z,12.80
2018-09-03T12:49:10.007Z,11.27
2018-09-03T12:51:39.273Z,13.20
2018-09-03T12:54:07.881Z,16.73
2018-09-03T12:56:36.213Z,11.68
2018-09-03T12:59:09.806Z,20.93
2018-09-03T13:01:39.586Z,13.77
2018-09-03T13:04:08.959Z,14.30
2018-09-03T13:06:37.509Z,16.93
2018-09-03T13:11:55.283Z,18.93
2018-09-03T13:14:24.203Z,23.00
2018-09-03T13:16:52.767Z,18.87
2018-09-03T13:19:21.582Z,17.73
2018-09-03T13:21:50.300Z,16.23
2018-09-03T13:24:21.085Z,18.83
2018-09-03T13:26:50.978Z,15.73
2018-09-03T13:29:19.496Z,20.53
2018-09-03T13:31:48.569Z,12.47
2018-09-03T13:34:20.167Z,12.07
2018-09-03T13:36:48.815Z,20.93
2018-09-03T13:39:19.088Z,16.03
2018-09-03T13:41:48.262Z,15.27
2018-09-03T13:44:18.016Z,13.83
2018-09-03T13:46:47.544Z,15.53
2018-09-03T13:49:19.686Z,13.40
2018-09-03T13:51:49.395Z,13.87
2018-09-03T13:54:18.097Z,13.87
2018-09-03T13:56:46.884Z,15.53
2018-09-03T13:59:15.553Z,14.33
2018-09-03T14:01:43.936Z,13.30
2018-09-03T14:04:12.450Z,13.30
2018-09-03T14:06:41.239Z,12.43
2018-09-03T14:09:09.650Z,12.17
2018-09-03T14:11:38.731Z,14.07
2018-09-03T14:14:08.680Z,18.70
2018-09-03T14:16:37.296Z,15.73
2018-09-03T14:19:06.098Z,14.10
2018-09-03T14:21:34.986Z,12.43
2018-09-03T14:24:03.561Z,14.10
2018-09-03T14:26:37.198Z,14.67
2018-09-03T14:29:05.956Z,16.20
2018-09-03T14:31:35.533Z,15.97
2018-09-03T14:34:06.375Z,11.40
2018-09-03T14:36:36.016Z,14.57
2018-09-03T14:39:05.927Z,10.37
2018-09-03T14:41:42.065Z,11.60
2018-09-03T14:44:12.788Z,14.90
2018-09-03T14:49:08.675Z,16.17
2018-09-03T14:51:37.183Z,10.77
2018-09-03T14:54:09.618Z,13.20
2018-09-03T14:56:39.533Z,14.57
2018-09-03T14:59:14.507Z,13.37
2018-09-03T15:01:44.548Z,12.97
2018-09-03T15:04:13.046Z,17.37
2018-09-03T15:06:43.629Z,12.07
2018-09-03T15:09:14.388Z,13.37
2018-09-03T15:11:42.925Z,14.23
2018-09-03T15:14:11.407Z,14.03
2018-09-03T15:16:40.787Z,14.20
2018-09-03T15:19:09.482Z,16.17
2018-09-03T15:21:38.238Z,14.63
2018-09-03T15:24:07.228Z,14.10
2018-09-03T15:26:35.788Z,18.77
2018-09-03T15:29:07.168Z,14.83
2018-09-03T15:31:37.491Z,12.93
2018-09-03T15:34:06.333Z,15.23
2018-09-03T15:36:37.883Z,13.77
2018-09-03T15:39:10.239Z,14.50
2018-09-03T15:41:38.652Z,14.33
2018-09-03T15:44:09.562Z,15.80
2018-09-03T15:46:39.595Z,14.67
2018-09-03T15:49:08.084Z,18.17
2018-09-03T15:51:36.732Z,16.27
2018-09-03T15:54:05.271Z,12.10
2018-09-03T15:56:38.636Z,13.90
2018-09-03T15:59:07.237Z,14.57
2018-09-03T16:01:38.603Z,17.80
2018-09-03T16:04:07.124Z,14.33
2018-09-03T16:06:35.838Z,27.97
2018-09-03T16:09:08.503Z,14.67
2018-09-03T16:11:38.676Z,18.43
2018-09-03T16:14:09.185Z,20.40
2018-09-03T16:16:40.824Z,16.17
2018-09-03T16:19:10.454Z,15.70
2018-09-03T16:21:39.922Z,15.80
2018-09-03T16:24:09.251Z,16.30
2018-09-03T16:26:38.046Z,25.40
2018-09-03T16:29:07.385Z,23.40
2018-09-03T16:31:36.425Z,22.73
2018-09-03T16:34:10.141Z,21.67
2018-09-03T16:36:37.953Z,25.20
2018-09-03T16:39:09.661Z,25.67
2018-09-03T16:41:42.430Z,18.53
2018-09-03T16:44:14.466Z,31.40
2018-09-03T16:46:43.816Z,24.50
2018-09-03T16:49:11.653Z,23.57
2018-09-03T16:51:39.731Z,15.50
2018-09-03T16:54:07.472Z,16.17
2018-09-03T16:56:35.157Z,18.07
2018-09-03T16:59:02.884Z,16.83
2018-09-03T17:01:30.802Z,21.20
2018-09-03T17:04:01.026Z,23.20
2018-09-03T17:06:28.739Z,21.80
2018-09-03T17:08:56.419Z,21.77
2018-09-03T17:11:24.154Z,19.30
2018-09-03T17:13:51.860Z,23.53
2018-09-03T17:16:19.546Z,21.63
2018-09-03T17:18:47.401Z,19.67
2018-09-03T17:21:15.193Z,18.77
2018-09-03T17:23:42.893Z,12.63
2018-09-03T17:26:10.692Z,15.30
2018-09-03T17:28:39.320Z,13.60
2018-09-03T17:31:07.036Z,12.60
2018-09-03T17:33:34.801Z,15.57
2018-09-03T17:36:02.856Z,19.60
2018-09-03T17:38:30.623Z,21.50
2018-09-03T17:40:58.286Z,16.20
2018-09-03T17:43:26.363Z,15.83
2018-09-03T17:45:54.157Z,14.10
2018-09-03T17:48:22.008Z,14.50
2018-09-03T17:50:49.755Z,16.00
2018-09-03T17:53:17.470Z,13.73
2018-09-03T17:55:45.726Z,12.70
2018-09-03T17:58:13.413Z,13.83
2018-09-03T18:00:41.182Z,10.93
2018-09-03T18:03:09.252Z,13.23
2018-09-03T18:05:37.864Z,11.73
2018-09-03T18:08:05.658Z,13.80
2018-09-03T18:10:33.726Z,11.97
2018-09-03T18:13:01.969Z,18.60
2018-09-03T18:15:29.933Z,11.37
2018-09-03T18:17:57.629Z,17.87
2018-09-03T18:20:25.672Z,11.07
2018-09-03T18:22:53.606Z,14.37
2018-09-03T18:25:21.869Z,17.83
2018-09-03T18:27:49.539Z,11.37
2018-09-03T18:30:17.650Z,11.70
2018-09-03T18:32:45.825Z,11.53
2018-09-03T18:35:13.537Z,12.20
2018-09-03T18:37:41.538Z,9.83
2018-09-03T18:40:09.278Z,11.53
2018-09-03T18:42:37.074Z,12.00
2018-09-03T18:45:05.427Z,12.87
2018-09-03T18:47:33.206Z,12.00
2018-09-03T18:50:01.559Z,27.30
2018-09-03T18:52:29.367Z,11.37
2018-09-03T18:54:57.051Z,13.13
2018-09-03T18:57:24.756Z,14.53
2018-09-03T18:59:54.183Z,12.77
2018-09-03T19:02:22.185Z,9.87
2018-09-03T19:04:49.916Z,15.80
2018-09-03T19:07:17.690Z,14.53
2018-09-03T19:09:45.447Z,12.93
2018-09-03T19:12:13.155Z,12.63
2018-09-03T19:14:41.344Z,22.87
2018-09-03T19:17:09.026Z,19.00
2018-09-03T19:19:36.785Z,13.07
2018-09-03T19:22:04.515Z,16.80
2018-09-03T19:24:32.217Z,12.07
2018-09-03T19:26:59.990Z,17.90
2018-09-03T19:29:27.690Z,14.30
2018-09-03T19:31:55.471Z,9.20
2018-09-03T19:34:23.629Z,11.23
2018-09-03T19:36:51.305Z,12.03
2018-09-03T19:39:19.033Z,9.20
2018-09-03T19:41:46.812Z,10.30
2018-09-03T19:44:14.542Z,11.60
2018-09-03T19:46:42.201Z,8.73
2018-09-03T19:49:10.007Z,8.67
2018-09-03T19:51:37.667Z,10.27
2018-09-03T19:54:05.924Z,11.23
2018-09-03T19:56:33.874Z,13.00
2018-09-03T19:59:01.829Z,12.33
2018-09-03T20:01:29.907Z,8.07
2018-09-03T20:03:57.591Z,9.07
2018-09-03T20:06:25.362Z,7.37
2018-09-03T20:08:53.158Z,14.50
2018-09-03T20:11:20.855Z,9.93
2018-09-03T20:13:48.640Z,6.90
2018-09-03T20:16:16.583Z,8.53
2018-09-03T20:18:44.312Z,7.13
2018-09-03T20:21:12.082Z,7.83
2018-09-03T20:23:40.461Z,13.13
2018-09-03T20:26:08.173Z,9.70
2018-09-03T20:28:35.936Z,9.87
2018-09-03T20:31:04.005Z,11.70
2018-09-03T20:33:31.677Z,6.23
2018-09-03T20:35:59.427Z,7.03
2018-09-03T20:38:27.103Z,7.93
2018-09-03T20:40:54.792Z,7.07
2018-09-03T20:43:22.864Z,5.77
2018-09-03T20:45:50.595Z,9.77
2018-09-03T20:48:18.333Z,6.53
2018-09-03T20:50:46.010Z,6.00
2018-09-03T20:53:13.721Z,5.80
2018-09-03T20:55:41.767Z,16.90
2018-09-03T20:58:09.470Z,9.40
2018-09-03T21:00:37.148Z,9.20
2018-09-03T21:03:05.265Z,8.40
2018-09-03T21:05:33.006Z,6.30
2018-09-03T21:08:00.785Z,6.20
2018-09-03T21:10:28.420Z,10.00
2018-09-03T21:12:56.091Z,7.20
2018-09-03T21:15:23.877Z,6.90
2018-09-03T21:17:51.540Z,7.60
2018-09-03T21:20:19.249Z,6.53
2018-09-03T21:22:46.972Z,6.17
2018-09-03T21:25:14.658Z,6.90
2018-09-03T21:27:42.490Z,8.40
2018-09-03T21:30:10.189Z,7.07
2018-09-03T21:32:37.928Z,6.20
2018-09-03T21:35:06.444Z,6.50
2018-09-03T21:37:34.551Z,7.73
2018-09-03T21:40:02.243Z,6.17
2018-09-03T21:42:29.916Z,7.20
2018-09-03T21:44:57.701Z,6.50
2018-09-03T21:47:25.358Z,10.30
2018-09-03T21:49:53.067Z,7.30
2018-09-03T21:52:21.131Z,10.07
2018-09-03T21:54:48.811Z,5.40
2018-09-03T21:57:16.469Z,12.37
2018-09-03T21:59:44.149Z,6.60
2018-09-03T22:02:11.897Z,8.67
2018-09-03T22:04:41.536Z,7.00
2018-09-03T22:07:09.262Z,8.50
2018-09-03T22:09:37.233Z,6.10
2018-09-03T22:12:04.945Z,5.53
2018-09-03T22:14:32.600Z,7.60
2018-09-03T22:17:00.362Z,6.93
2018-09-03T22:19:28.051Z,5.83
2018-09-03T22:21:56.112Z,5.40
2018-09-03T22:24:23.792Z,6.10
2018-09-03T22:26:51.634Z,5.43
2018-09-03T22:29:19.325Z,6.73
2018-09-03T22:31:47.068Z,10.80
2018-09-03T22:34:14.748Z,5.90
2018-09-03T22:36:43.318Z,5.83
2018-09-03T22:39:11.125Z,5.77
2018-09-03T22:41:38.912Z,9.13
2018-09-03T22:44:06.887Z,7.27
2018-09-03T22:46:34.582Z,5.87
2018-09-03T22:49:02.318Z,7.87
2018-09-03T22:51:30.241Z,5.63
2018-09-03T22:53:58.340Z,8.50
2018-09-03T22:56:26.046Z,13.60
2018-09-03T22:58:53.728Z,7.50
2018-09-03T23:01:21.534Z,5.63
2018-09-03T23:03:49.190Z,7.00
2018-09-03T23:06:17.005Z,5.83
2018-09-03T23:08:44.697Z,6.00
2018-09-03T23:11:12.404Z,6.13
2018-09-03T23:13:40.189Z,6.33
2018-09-03T23:16:07.898Z,8.23
2018-09-03T23:18:35.622Z,5.03
2018-09-03T23:21:03.277Z,4.90
2018-09-03T23:23:32.273Z,4.63
2018-09-03T23:25:59.932Z,7.50
2018-09-03T23:28:27.598Z,7.03
2018-09-03T23:30:55.601Z,5.60
2018-09-03T23:33:23.313Z,4.43
2018-09-03T23:35:51.100Z,4.93
2018-09-03T23:38:24.031Z,5.57
2018-09-03T23:40:51.715Z,6.57
2018-09-03T23:43:19.845Z,7.70
2018-09-03T23:45:47.420Z,6.47
2018-09-03T23:48:15.773Z,5.97
2018-09-03T23:50:43.468Z,7.13
2018-09-03T23:53:11.131Z,5.03
2018-09-03T23:55:39.100Z,5.93
